Time;durP1;ratioP1;P1;durP2;ratioP2;P2;SDS_P1;SDS_P2;PMS_P1;PMS_P2;Temp;Humidity;BMP_temperature;BMP_pressure;BME280_temperature;BME280_humidity;BME280_pressure;Samples;Min_cycle;Max_cycle;Signal;HPM_P1;HPM_P2
2021/09/28 00:00:23;;;;;;;4.28;0.90;;;;;;;;;;5020501;28;20033;-61
2021/09/28 00:02:48;;;;;;;10.68;0.60;;;;;;;;;;5022403;28;20404;-60
2021/09/28 00:05:14;;;;;;;7.10;0.55;;;;;;;;;;5022617;28;20069;-61
2021/09/28 00:07:39;;;;;;;8.30;0.57;;;;;;;;;;5018211;28;20037;-61
2021/09/28 00:10:05;;;;;;;9.27;0.43;;;;;;;;;;5019081;28;20561;-61
2021/09/28 00:12:31;;;;;;;4.97;0.40;;;;;;;;;;5018766;28;20036;-61
2021/09/28 00:14:56;;;;;;;6.07;0.55;;;;;;;;;;5023126;28;20675;-61
2021/09/28 00:17:22;;;;;;;3.55;0.38;;;;;;;;;;5020313;28;20025;-61
2021/09/28 00:19:47;;;;;;;10.50;0.80;;;;;;;;;;5018384;28;20049;-61
2021/09/28 00:22:13;;;;;;;3.70;0.22;;;;;;;;;;5021451;28;20416;-61
2021/09/28 00:24:38;;;;;;;4.88;0.55;;;;;;;;;;5018660;28;20094;-61
2021/09/28 00:27:04;;;;;;;3.97;0.40;;;;;;;;;;5014758;28;20029;-61
2021/09/28 00:29:30;;;;;;;7.63;0.50;;;;;;;;;;5022056;28;20033;-61
2021/09/28 00:31:55;;;;;;;7.20;0.38;;;;;;;;;;5023766;28;20502;-61
2021/09/28 00:34:21;;;;;;;4.32;0.40;;;;;;;;;;5023491;28;20040;-61
2021/09/28 00:36:46;;;;;;;9.93;0.70;;;;;;;;;;5021680;28;20061;-61
2021/09/28 00:39:12;;;;;;;4.70;0.20;;;;;;;;;;5025283;28;20385;-61
2021/09/28 00:41:37;;;;;;;3.30;0.22;;;;;;;;;;5023802;28;20527;-61
2021/09/28 00:44:03;;;;;;;4.68;0.40;;;;;;;;;;5019408;28;20037;-61
2021/09/28 00:46:29;;;;;;;5.53;0.40;;;;;;;;;;5020104;28;20037;-61
2021/09/28 00:48:54;;;;;;;5.90;0.45;;;;;;;;;;5017756;28;20120;-61
2021/09/28 00:51:21;;;;;;;3.17;0.22;;;;;;;;;;5015610;28;20025;-61
2021/09/28 00:53:50;;;;;;;6.63;0.50;;;;;;;;;;5017895;28;20033;-61
2021/09/28 00:56:17;;;;;;;4.30;0.20;;;;;;;;;;5020902;28;20435;-61
2021/09/28 00:58:44;;;;;;;4.40;0.20;;;;;;;;;;5019824;28;20048;-61
2021/09/28 01:01:11;;;;;;;6.13;0.30;;;;;;;;;;5002869;28;20050;-61
2021/09/28 01:03:37;;;;;;;7.50;0.50;;;;;;;;;;4999126;28;20092;-61
2021/09/28 01:06:03;;;;;;;6.43;0.50;;;;;;;;;;5000739;28;20037;-61
2021/09/28 01:08:29;;;;;;;5.07;1.20;;;;;;;;;;4996217;28;20019;-61
2021/09/28 01:10:55;;;;;;;6.97;0.65;;;;;;;;;;4996713;28;20463;-61
2021/09/28 01:13:22;;;;;;;3.88;0.20;;;;;;;;;;5003946;28;20034;-60
2021/09/28 01:16:09;;;;;;;2.15;0.17;;;;;;;;;;5000181;28;20034;-60
2021/09/28 01:18:37;;;;;;;6.70;0.50;;;;;;;;;;4997926;28;20064;-60
2021/09/28 01:21:04;;;;;;;5.93;0.57;;;;;;;;;;4998757;28;20029;-61
2021/09/28 01:23:31;;;;;;;5.95;0.45;;;;;;;;;;4999044;28;20136;-60
2021/09/28 01:25:56;;;;;;;10.05;0.60;;;;;;;;;;5000752;28;20099;-61
2021/09/28 01:28:22;;;;;;;4.80;0.82;;;;;;;;;;5018670;28;20473;-61
2021/09/28 01:30:48;;;;;;;3.08;0.20;;;;;;;;;;5002291;28;20504;-61
2021/09/28 01:33:15;;;;;;;5.78;0.65;;;;;;;;;;4998837;28;20125;-61
2021/09/28 01:35:42;;;;;;;4.40;0.43;;;;;;;;;;4999253;28;20125;-61
2021/09/28 01:38:08;;;;;;;2.65;0.30;;;;;;;;;;5000792;28;20062;-61
2021/09/28 01:40:35;;;;;;;6.28;0.30;;;;;;;;;;5002947;28;20061;-61
2021/09/28 01:43:11;;;;;;;5.57;0.30;;;;;;;;;;4998554;28;20030;-61
2021/09/28 01:45:40;;;;;;;5.43;0.40;;;;;;;;;;5001884;28;20500;-61
2021/09/28 01:48:06;;;;;;;7.15;0.50;;;;;;;;;;4998137;28;20050;-61
2021/09/28 01:50:32;;;;;;;7.10;1.00;;;;;;;;;;4997207;28;20225;-61
2021/09/28 01:52:58;;;;;;;4.82;0.38;;;;;;;;;;5002569;28;20025;-61
2021/09/28 01:55:24;;;;;;;11.77;0.73;;;;;;;;;;4996984;28;20087;-61
2021/09/28 01:57:55;;;;;;;4.57;0.60;;;;;;;;;;4997169;28;20236;-61
2021/09/28 02:00:22;;;;;;;23.35;1.80;;;;;;;;;;5003259;28;20599;-63
2021/09/28 02:02:47;;;;;;;8.02;1.50;;;;;;;;;;5000283;28;20037;-61
2021/09/28 02:05:13;;;;;;;6.30;0.52;;;;;;;;;;4997335;28;20026;-61
2021/09/28 02:07:38;;;;;;;5.28;0.68;;;;;;;;;;4999871;28;20473;-61
2021/09/28 02:10:05;;;;;;;3.65;0.40;;;;;;;;;;4987001;28;20088;-61
2021/09/28 02:12:30;;;;;;;7.60;0.50;;;;;;;;;;4994671;28;20041;-61
2021/09/28 02:14:56;;;;;;;4.28;0.50;;;;;;;;;;5000366;28;20038;-61
2021/09/28 02:17:21;;;;;;;6.35;0.57;;;;;;;;;;4997275;28;20208;-61
2021/09/28 02:19:47;;;;;;;7.07;0.30;;;;;;;;;;4995456;28;20022;-61
2021/09/28 02:22:13;;;;;;;7.68;0.57;;;;;;;;;;4993948;28;20528;-61
2021/09/28 02:24:38;;;;;;;4.90;0.32;;;;;;;;;;5002404;28;20065;-61
2021/09/28 02:27:04;;;;;;;5.15;0.38;;;;;;;;;;4998016;28;20069;-61
2021/09/28 02:29:29;;;;;;;8.18;0.50;;;;;;;;;;4997636;28;20042;-61
2021/09/28 02:31:55;;;;;;;10.43;0.57;;;;;;;;;;4999015;28;20041;-62
2021/09/28 02:34:20;;;;;;;7.35;0.40;;;;;;;;;;4997906;28;20381;-61
2021/09/28 02:36:46;;;;;;;7.45;0.40;;;;;;;;;;5000771;28;20652;-61
2021/09/28 02:39:11;;;;;;;10.18;0.60;;;;;;;;;;4998430;28;20066;-61
2021/09/28 02:41:37;;;;;;;12.68;0.60;;;;;;;;;;4993336;28;20058;-61
2021/09/28 02:44:06;;;;;;;7.53;0.75;;;;;;;;;;5000020;28;20062;-61
2021/09/28 02:46:32;;;;;;;9.23;0.93;;;;;;;;;;5001468;28;20037;-61
2021/09/28 02:48:59;;;;;;;6.88;0.40;;;;;;;;;;4994187;28;20443;-61
2021/09/28 02:51:24;;;;;;;6.07;0.60;;;;;;;;;;4995263;28;20029;-61
2021/09/28 02:53:50;;;;;;;14.07;0.60;;;;;;;;;;4993653;28;20037;-62
2021/09/28 02:56:15;;;;;;;3.63;0.30;;;;;;;;;;4995090;28;20463;-61
2021/09/28 02:58:41;;;;;;;8.38;0.60;;;;;;;;;;4996724;28;20037;-62
2021/09/28 03:01:06;;;;;;;5.07;0.45;;;;;;;;;;4993842;28;20527;-61
2021/09/28 03:03:32;;;;;;;12.52;0.68;;;;;;;;;;4999989;28;20052;-61
2021/09/28 03:05:57;;;;;;;5.82;0.47;;;;;;;;;;4997713;28;20312;-61
2021/09/28 03:08:23;;;;;;;11.35;0.85;;;;;;;;;;4996012;28;20035;-61
2021/09/28 03:10:49;;;;;;;9.45;1.25;;;;;;;;;;4998732;28;20400;-61
2021/09/28 03:13:14;;;;;;;5.30;0.43;;;;;;;;;;4998251;28;20030;-62
2021/09/28 03:15:40;;;;;;;5.72;0.98;;;;;;;;;;5002255;28;20023;-61
2021/09/28 03:18:06;;;;;;;9.32;0.90;;;;;;;;;;4999630;28;20146;-61
2021/09/28 03:20:32;;;;;;;6.90;0.47;;;;;;;;;;4997127;28;20030;-61
2021/09/28 03:22:57;;;;;;;13.05;0.82;;;;;;;;;;5001149;28;20029;-61
2021/09/28 03:25:23;;;;;;;7.05;0.60;;;;;;;;;;5000122;28;20030;-61
2021/09/28 03:27:49;;;;;;;6.35;0.50;;;;;;;;;;5002407;28;20032;-61
2021/09/28 03:30:14;;;;;;;11.27;0.85;;;;;;;;;;5004543;28;20040;-61
2021/09/28 03:32:40;;;;;;;11.68;0.95;;;;;;;;;;5002848;28;20511;-61
2021/09/28 03:35:09;;;;;;;12.30;0.57;;;;;;;;;;4994169;28;20037;-61
2021/09/28 03:37:39;;;;;;;11.75;0.50;;;;;;;;;;4998010;28;20277;-61
2021/09/28 03:40:07;;;;;;;5.90;0.75;;;;;;;;;;4999950;28;20042;-61
2021/09/28 03:42:33;;;;;;;10.82;0.73;;;;;;;;;;5000898;28;20069;-62
2021/09/28 03:44:58;;;;;;;6.43;1.10;;;;;;;;;;5003172;28;20054;-61
2021/09/28 03:47:24;;;;;;;5.28;0.52;;;;;;;;;;4996529;28;20411;-61
2021/09/28 03:49:49;;;;;;;14.20;1.90;;;;;;;;;;4998515;28;20022;-62
2021/09/28 03:52:15;;;;;;;4.95;0.85;;;;;;;;;;4999304;28;20542;-61
2021/09/28 03:54:41;;;;;;;8.55;0.90;;;;;;;;;;4996551;28;20473;-61
2021/09/28 03:57:06;;;;;;;3.13;0.32;;;;;;;;;;4999076;28;20033;-61
2021/09/28 03:59:32;;;;;;;8.55;0.52;;;;;;;;;;5003035;28;20053;-61
2021/09/28 04:01:57;;;;;;;8.00;0.70;;;;;;;;;;5001837;28;20034;-61
2021/09/28 04:04:23;;;;;;;7.72;0.35;;;;;;;;;;5001375;28;20057;-61
2021/09/28 04:06:48;;;;;;;8.70;0.93;;;;;;;;;;4999256;28;20030;-60
2021/09/28 04:09:14;;;;;;;15.45;0.90;;;;;;;;;;4999316;28;20533;-60
2021/09/28 04:11:40;;;;;;;5.95;0.73;;;;;;;;;;4994376;28;20036;-60
2021/09/28 04:14:07;;;;;;;8.95;0.60;;;;;;;;;;4995908;28;20037;-61
2021/09/28 04:16:33;;;;;;;11.38;1.25;;;;;;;;;;5001460;28;20041;-61
2021/09/28 04:18:58;;;;;;;4.85;0.70;;;;;;;;;;5002582;28;20393;-61
2021/09/28 04:21:27;;;;;;;6.65;0.43;;;;;;;;;;4998473;28;20082;-61
2021/09/28 04:23:53;;;;;;;8.55;0.70;;;;;;;;;;4993815;28;20038;-61
2021/09/28 04:26:18;;;;;;;6.35;0.60;;;;;;;;;;4999545;28;20030;-61
2021/09/28 04:28:44;;;;;;;14.23;0.60;;;;;;;;;;4998516;28;20069;-61
2021/09/28 04:31:14;;;;;;;14.20;0.77;;;;;;;;;;4996005;28;20030;-61
2021/09/28 04:33:40;;;;;;;8.38;0.90;;;;;;;;;;5003081;28;20026;-61
2021/09/28 04:36:05;;;;;;;14.60;1.05;;;;;;;;;;4996320;28;20501;-61
2021/09/28 04:38:31;;;;;;;8.48;0.40;;;;;;;;;;4996199;28;20536;-61
2021/09/28 04:40:57;;;;;;;13.13;1.20;;;;;;;;;;4996485;28;20030;-61
2021/09/28 04:43:22;;;;;;;7.70;1.20;;;;;;;;;;5004437;28;20060;-61
2021/09/28 04:45:47;;;;;;;16.75;0.75;;;;;;;;;;4999068;28;20128;-61
2021/09/28 04:48:13;;;;;;;5.93;1.23;;;;;;;;;;4997044;28;20447;-61
2021/09/28 04:50:39;;;;;;;10.88;1.08;;;;;;;;;;4998605;28;20236;-61
2021/09/28 04:53:04;;;;;;;11.10;0.88;;;;;;;;;;4994642;28;20026;-61
2021/09/28 04:55:30;;;;;;;6.88;0.60;;;;;;;;;;5000772;28;20465;-61
2021/09/28 04:57:55;;;;;;;7.20;0.52;;;;;;;;;;4999991;28;20030;-61
2021/09/28 05:00:21;;;;;;;7.32;0.45;;;;;;;;;;4996774;28;20057;-61
2021/09/28 05:02:47;;;;;;;10.45;0.75;;;;;;;;;;4999007;28;20506;-61
2021/09/28 05:05:12;;;;;;;8.90;0.70;;;;;;;;;;5000478;28;20040;-61
2021/09/28 05:07:38;;;;;;;10.50;0.90;;;;;;;;;;4991814;28;20114;-61
2021/09/28 05:10:04;;;;;;;10.32;1.20;;;;;;;;;;4993783;28;20437;-61
2021/09/28 05:12:29;;;;;;;8.65;0.47;;;;;;;;;;4995098;28;20457;-61
2021/09/28 05:14:56;;;;;;;6.18;0.60;;;;;;;;;;4997029;28;20027;-61
2021/09/28 05:17:22;;;;;;;10.00;0.90;;;;;;;;;;4998145;28;20042;-61
2021/09/28 05:19:47;;;;;;;3.80;0.60;;;;;;;;;;5002111;28;20551;-61
2021/09/28 05:22:13;;;;;;;12.73;1.15;;;;;;;;;;4997874;28;20030;-61
2021/09/28 05:24:38;;;;;;;5.78;0.55;;;;;;;;;;5000587;28;20380;-61
2021/09/28 05:27:04;;;;;;;6.43;0.75;;;;;;;;;;4997894;28;20034;-61
2021/09/28 05:29:30;;;;;;;12.93;0.75;;;;;;;;;;4993722;28;20037;-61
2021/09/28 05:31:56;;;;;;;12.30;0.70;;;;;;;;;;4994920;28;20039;-61
2021/09/28 05:34:23;;;;;;;5.25;0.65;;;;;;;;;;5002303;28;20146;-61
2021/09/28 05:36:48;;;;;;;8.02;0.73;;;;;;;;;;4995957;28;20144;-61
2021/09/28 05:39:14;;;;;;;6.35;0.63;;;;;;;;;;4999177;28;20114;-61
2021/09/28 05:41:39;;;;;;;14.98;1.08;;;;;;;;;;4995378;28;20034;-61
2021/09/28 05:44:05;;;;;;;11.90;0.73;;;;;;;;;;4994883;28;20061;-61
2021/09/28 05:46:31;;;;;;;10.57;1.00;;;;;;;;;;5001370;28;20040;-61
2021/09/28 05:48:57;;;;;;;9.40;0.88;;;;;;;;;;5002892;28;20025;-61
2021/09/28 05:51:25;;;;;;;9.18;0.80;;;;;;;;;;4995966;28;20049;-61
2021/09/28 05:53:51;;;;;;;6.03;0.60;;;;;;;;;;4999411;28;20397;-61
2021/09/28 05:56:17;;;;;;;8.27;0.95;;;;;;;;;;5002043;28;20041;-62
2021/09/28 05:58:42;;;;;;;10.73;0.70;;;;;;;;;;5000494;28;20092;-61
2021/09/28 06:01:08;;;;;;;6.60;0.65;;;;;;;;;;4996931;28;20056;-61
2021/09/28 06:03:34;;;;;;;8.27;0.47;;;;;;;;;;4995531;28;20491;-61
2021/09/28 06:06:02;;;;;;;7.25;0.90;;;;;;;;;;4996008;28;20599;-61
2021/09/28 06:08:28;;;;;;;9.02;0.68;;;;;;;;;;4998423;28;20064;-60
2021/09/28 06:10:54;;;;;;;11.23;0.70;;;;;;;;;;4994620;28;20054;-61
2021/09/28 06:13:19;;;;;;;12.43;1.00;;;;;;;;;;4995075;28;20590;-61
2021/09/28 06:15:45;;;;;;;14.98;1.05;;;;;;;;;;4994536;28;20044;-61
2021/09/28 06:18:10;;;;;;;8.32;0.70;;;;;;;;;;4995267;28;20064;-61
2021/09/28 06:20:36;;;;;;;11.43;0.77;;;;;;;;;;4996455;28;20046;-61
2021/09/28 06:23:01;;;;;;;9.18;0.80;;;;;;;;;;5002811;28;20058;-61
2021/09/28 06:25:27;;;;;;;9.02;0.80;;;;;;;;;;4995370;28;20029;-61
2021/09/28 06:27:52;;;;;;;10.55;0.85;;;;;;;;;;4996174;28;20096;-61
2021/09/28 06:30:18;;;;;;;10.80;0.93;;;;;;;;;;4993056;28;20562;-61
2021/09/28 06:32:43;;;;;;;6.10;0.50;;;;;;;;;;5003309;28;20171;-61
2021/09/28 06:35:09;;;;;;;6.25;0.63;;;;;;;;;;4995257;28;20420;-61
2021/09/28 06:37:35;;;;;;;8.52;0.70;;;;;;;;;;4998297;28;20126;-61
2021/09/28 06:40:00;;;;;;;8.80;0.70;;;;;;;;;;4995343;28;20042;-61
2021/09/28 06:42:26;;;;;;;9.02;0.70;;;;;;;;;;4993334;28;20250;-61
2021/09/28 06:44:51;;;;;;;19.10;1.38;;;;;;;;;;4995506;28;20053;-62
2021/09/28 06:47:17;;;;;;;10.93;0.63;;;;;;;;;;4994225;28;20030;-61
2021/09/28 06:49:45;;;;;;;3.33;0.77;;;;;;;;;;5003411;28;20476;-62
2021/09/28 06:52:11;;;;;;;6.43;0.40;;;;;;;;;;5000934;28;20034;-62
2021/09/28 06:54:40;;;;;;;6.60;0.93;;;;;;;;;;5001282;28;20125;-62
2021/09/28 06:57:06;;;;;;;9.00;0.82;;;;;;;;;;5002548;28;20516;-61
2021/09/28 06:59:31;;;;;;;5.32;0.55;;;;;;;;;;5001436;28;20045;-62
2021/09/28 07:01:57;;;;;;;7.22;0.60;;;;;;;;;;5001287;28;20034;-62
2021/09/28 07:04:22;;;;;;;8.55;1.20;;;;;;;;;;5003174;28;20030;-62
2021/09/28 07:06:48;;;;;;;5.88;0.30;;;;;;;;;;5003349;28;20353;-62
2021/09/28 07:09:14;;;;;;;5.47;0.43;;;;;;;;;;4997448;28;21387;-62
2021/09/28 07:11:39;;;;;;;4.93;0.25;;;;;;;;;;5000302;28;20030;-63
2021/09/28 07:14:05;;;;;;;2.60;0.20;;;;;;;;;;4998598;28;20128;-62
2021/09/28 07:16:30;;;;;;;8.38;2.10;;;;;;;;;;5008813;28;20036;-62
2021/09/28 07:18:56;;;;;;;3.78;0.40;;;;;;;;;;4997625;28;20087;-62
2021/09/28 07:21:22;;;;;;;8.93;0.63;;;;;;;;;;4994536;28;20034;-62
2021/09/28 07:23:48;;;;;;;4.88;0.65;;;;;;;;;;4998993;28;20342;-63
2021/09/28 07:26:13;;;;;;;16.63;0.40;;;;;;;;;;4994747;28;20038;-63
2021/09/28 07:28:39;;;;;;;7.43;0.73;;;;;;;;;;5001561;28;20508;-63
2021/09/28 07:31:06;;;;;;;9.07;0.60;;;;;;;;;;5001284;28;20081;-63
2021/09/28 07:33:32;;;;;;;5.05;0.43;;;;;;;;;;5005534;28;20489;-61
2021/09/28 07:35:58;;;;;;;4.22;0.40;;;;;;;;;;5000033;28;20325;-64
2021/09/28 07:38:23;;;;;;;3.40;0.40;;;;;;;;;;4994623;28;20030;-63
2021/09/28 07:40:50;;;;;;;8.70;0.43;;;;;;;;;;5000635;28;20638;-62
2021/09/28 07:43:18;;;;;;;3.08;0.40;;;;;;;;;;4998410;28;20270;-64
2021/09/28 07:45:43;;;;;;;10.32;0.40;;;;;;;;;;5001086;28;20061;-64
2021/09/28 07:48:09;;;;;;;3.25;0.40;;;;;;;;;;5004862;28;20105;-64
2021/09/28 07:50:36;;;;;;;2.00;0.30;;;;;;;;;;5003105;28;20201;-63
2021/09/28 07:53:05;;;;;;;4.72;0.40;;;;;;;;;;4996566;28;20551;-64
2021/09/28 07:55:31;;;;;;;5.03;0.20;;;;;;;;;;4995235;28;20057;-65
2021/09/28 07:57:56;;;;;;;7.90;0.47;;;;;;;;;;4993506;28;20203;-64
2021/09/28 08:00:22;;;;;;;3.85;0.50;;;;;;;;;;4995170;28;20109;-64
2021/09/28 08:02:47;;;;;;;6.60;0.20;;;;;;;;;;4996730;28;20809;-64
2021/09/28 08:05:13;;;;;;;6.95;0.50;;;;;;;;;;4999128;28;20085;-65
2021/09/28 08:07:39;;;;;;;5.30;0.30;;;;;;;;;;4997915;28;20400;-65
2021/09/28 08:10:06;;;;;;;11.25;0.80;;;;;;;;;;4997167;28;20030;-65
2021/09/28 08:12:31;;;;;;;5.00;0.32;;;;;;;;;;5003420;28;20372;-64
2021/09/28 08:14:57;;;;;;;4.05;0.43;;;;;;;;;;5003226;28;20037;-64
2021/09/28 08:17:23;;;;;;;3.92;0.65;;;;;;;;;;5001456;28;20037;-64
2021/09/28 08:19:49;;;;;;;3.40;0.15;;;;;;;;;;4996593;28;20106;-64
2021/09/28 08:22:16;;;;;;;2.40;0.30;;;;;;;;;;5005453;28;20105;-64
2021/09/28 08:24:43;;;;;;;2.38;0.20;;;;;;;;;;4998175;28;20100;-63
2021/09/28 08:29:58;;;;;;;5.03;0.55;;;;;;;;;;4996544;28;20037;-64
2021/09/28 08:32:23;;;;;;;2.58;0.20;;;;;;;;;;4997077;28;20109;-63
2021/09/28 08:34:49;;;;;;;3.45;0.45;;;;;;;;;;4995053;28;20120;-63
2021/09/28 08:37:15;;;;;;;4.65;0.40;;;;;;;;;;4995445;28;20268;-65
2021/09/28 08:39:41;;;;;;;3.47;0.40;;;;;;;;;;4997259;28;20038;-64
2021/09/28 08:42:07;;;;;;;6.90;0.40;;;;;;;;;;4998948;28;20412;-65
2021/09/28 08:44:33;;;;;;;1.35;0.40;;;;;;;;;;4980792;28;20125;-64
2021/09/28 08:46:58;;;;;;;4.90;0.40;;;;;;;;;;4998445;28;20040;-64
2021/09/28 08:49:24;;;;;;;6.60;1.25;;;;;;;;;;5000174;28;20027;-64
2021/09/28 08:51:51;;;;;;;4.93;0.30;;;;;;;;;;5005245;28;20092;-64
2021/09/28 08:54:17;;;;;;;3.67;0.17;;;;;;;;;;5002718;28;20497;-64
2021/09/28 08:56:44;;;;;;;3.00;0.20;;;;;;;;;;4993692;28;20428;-64
2021/09/28 08:59:12;;;;;;;5.13;0.30;;;;;;;;;;4995911;28;20097;-64
2021/09/28 09:01:56;;;;;;;3.78;0.30;;;;;;;;;;4995549;28;20464;-64
2021/09/28 09:04:23;;;;;;;5.22;0.32;;;;;;;;;;4996079;28;20029;-65
2021/09/28 09:06:49;;;;;;;3.13;0.30;;;;;;;;;;5000434;28;20026;-64
2021/09/28 09:09:16;;;;;;;5.03;0.47;;;;;;;;;;5000015;28;20230;-64
2021/09/28 09:11:47;;;;;;;3.15;0.20;;;;;;;;;;4994152;28;20037;-64
2021/09/28 09:14:22;;;;;;;0.98;0.13;;;;;;;;;;4996662;28;20073;-64
2021/09/28 09:16:49;;;;;;;2.63;0.22;;;;;;;;;;4995775;28;20105;-65
2021/09/28 09:19:18;;;;;;;3.75;0.52;;;;;;;;;;4994362;28;20026;-64
2021/09/28 09:21:48;;;;;;;5.18;0.20;;;;;;;;;;4999717;28;20038;-65
2021/09/28 09:24:44;;;;;;;5.68;0.40;;;;;;;;;;5000083;28;20164;-66
2021/09/28 09:27:12;;;;;;;6.68;0.30;;;;;;;;;;5013160;28;20033;-65
2021/09/28 09:29:38;;;;;;;2.42;0.20;;;;;;;;;;5002152;28;20095;-64
2021/09/28 09:32:04;;;;;;;2.13;0.25;;;;;;;;;;5000525;28;20116;-64
2021/09/28 09:34:30;;;;;;;3.38;0.30;;;;;;;;;;4995090;28;21027;-65
2021/09/28 09:37:02;;;;;;;1.38;0.20;;;;;;;;;;5003471;28;20111;-64
2021/09/28 09:39:42;;;;;;;;;;;;;;;;;;5003124;28;20037;-65
2021/09/28 09:42:08;;;;;;;2.13;0.22;;;;;;;;;;5000970;28;20434;-65
2021/09/28 09:44:35;;;;;;;1.15;0.10;;;;;;;;;;4994365;28;20132;-64
2021/09/28 09:47:01;;;;;;;3.45;0.57;;;;;;;;;;4994170;28;20449;-65
2021/09/28 09:49:33;;;;;;;4.50;0.40;;;;;;;;;;5001696;28;20026;-65
2021/09/28 09:52:11;;;;;;;1.83;0.13;;;;;;;;;;4998391;28;20022;-65
2021/09/28 09:54:42;;;;;;;0.60;0.03;;;;;;;;;;4998514;28;20038;-65
2021/09/28 09:57:09;;;;;;;1.02;0.08;;;;;;;;;;4998246;28;20033;-65
2021/09/28 09:59:36;;;;;;;3.50;0.28;;;;;;;;;;4997315;28;20064;-64
2021/09/28 10:02:02;;;;;;;1.55;0.08;;;;;;;;;;4996815;28;20115;-65
2021/09/28 10:04:28;;;;;;;1.00;0.13;;;;;;;;;;4998627;28;20059;-65
2021/09/28 10:06:56;;;;;;;1.40;0.10;;;;;;;;;;4999596;28;20038;-65
2021/09/28 10:09:34;;;;;;;3.75;0.52;;;;;;;;;;5000801;28;20389;-65
2021/09/28 10:12:06;;;;;;;2.67;0.17;;;;;;;;;;4996015;28;20434;-65
2021/09/28 10:14:44;;;;;;;0.20;0.00;;;;;;;;;;5001959;28;20033;-65
2021/09/28 10:17:22;;;;;;;2.20;0.10;;;;;;;;;;4993458;28;20041;-65
2021/09/28 10:19:50;;;;;;;0.77;0.10;;;;;;;;;;4995585;28;20667;-65
2021/09/28 10:22:38;;;;;;;4.75;0.10;;;;;;;;;;5005700;28;20065;-65
2021/09/28 10:25:22;;;;;;;0.93;0.20;;;;;;;;;;5000158;28;20032;-65
2021/09/28 10:27:55;;;;;;;7.63;0.28;;;;;;;;;;5001828;28;20019;-65
2021/09/28 10:30:35;;;;;;;1.23;0.10;;;;;;;;;;4999448;28;20303;-64
2021/09/28 10:33:22;;;;;;;0.63;0.10;;;;;;;;;;4997044;28;20080;-65
2021/09/28 10:36:12;;;;;;;1.75;0.10;;;;;;;;;;5001493;28;20041;-64
2021/09/28 10:38:53;;;;;;;3.22;0.10;;;;;;;;;;4994745;28;20029;-64
2021/09/28 10:41:33;;;;;;;4.05;0.10;;;;;;;;;;4998032;28;20117;-64
2021/09/28 10:44:27;;;;;;;2.15;0.10;;;;;;;;;;5000377;28;20027;-65
2021/09/28 10:46:53;;;;;;;2.72;0.22;;;;;;;;;;4997110;28;20151;-64
2021/09/28 10:49:27;;;;;;;2.35;0.17;;;;;;;;;;4997920;28;20037;-64
2021/09/28 10:52:21;;;;;;;1.75;0.00;;;;;;;;;;4995809;28;20054;-65
2021/09/28 10:55:12;;;;;;;2.70;0.10;;;;;;;;;;4999948;28;20030;-65
2021/09/28 10:58:01;;;;;;;3.95;0.00;;;;;;;;;;4995327;28;20116;-65
2021/09/28 11:00:28;;;;;;;0.55;0.08;;;;;;;;;;5000042;28;20140;-64
2021/09/28 11:02:59;;;;;;;2.80;0.10;;;;;;;;;;5000096;28;20030;-65
2021/09/28 11:05:37;;;;;;;2.83;0.10;;;;;;;;;;4997674;28;20045;-64
2021/09/28 11:08:04;;;;;;;2.78;0.10;;;;;;;;;;5001171;28;20065;-65
2021/09/28 11:10:31;;;;;;;2.25;0.15;;;;;;;;;;5001370;28;20045;-65
2021/09/28 11:12:58;;;;;;;2.25;0.25;;;;;;;;;;5001361;28;20036;-64
2021/09/28 11:15:25;;;;;;;2.15;0.20;;;;;;;;;;5000743;28;20034;-64
2021/09/28 11:17:52;;;;;;;1.52;0.20;;;;;;;;;;4993546;28;20485;-64
2021/09/28 11:20:28;;;;;;;0.82;0.00;;;;;;;;;;4995210;28;20113;-65
2021/09/28 11:23:04;;;;;;;2.15;0.43;;;;;;;;;;4996852;28;20030;-65
2021/09/28 11:25:34;;;;;;;3.22;0.20;;;;;;;;;;4996059;28;20508;-65
2021/09/28 11:28:07;;;;;;;1.00;0.00;;;;;;;;;;5000333;28;20033;-65
2021/09/28 11:30:34;;;;;;;4.10;0.40;;;;;;;;;;4998719;28;20026;-64
2021/09/28 11:33:05;;;;;;;2.15;0.17;;;;;;;;;;4995539;28;20124;-64
2021/09/28 11:35:31;;;;;;;2.55;0.13;;;;;;;;;;4997843;28;20033;-64
2021/09/28 11:38:01;;;;;;;3.25;0.38;;;;;;;;;;5006655;28;20126;-65
2021/09/28 11:40:35;;;;;;;3.38;0.30;;;;;;;;;;5004804;28;20035;-64
2021/09/28 11:43:21;;;;;;;1.70;0.20;;;;;;;;;;4999264;28;20034;-65
2021/09/28 11:45:56;;;;;;;1.60;0.10;;;;;;;;;;4999538;28;20025;-65
2021/09/28 11:48:22;;;;;;;7.88;0.30;;;;;;;;;;4998980;28;20062;-64
2021/09/28 11:50:48;;;;;;;2.25;0.17;;;;;;;;;;4979312;28;20493;-65
2021/09/28 11:53:15;;;;;;;3.90;0.20;;;;;;;;;;4996284;28;20121;-66
2021/09/28 11:55:40;;;;;;;1.30;0.10;;;;;;;;;;4998894;28;20040;-66
2021/09/28 11:58:06;;;;;;;5.05;0.57;;;;;;;;;;4995263;28;20034;-65
2021/09/28 12:00:32;;;;;;;0.77;0.10;;;;;;;;;;4998086;28;20042;-65
2021/09/28 12:03:09;;;;;;;4.13;0.32;;;;;;;;;;4992954;28;20045;-65
2021/09/28 12:08:24;;;;;;;3.17;0.28;;;;;;;;;;4999716;28;20084;-66
2021/09/28 12:10:51;;;;;;;1.95;0.17;;;;;;;;;;5003841;28;20042;-65
2021/09/28 12:13:23;;;;;;;1.25;0.10;;;;;;;;;;5001417;28;20041;-65
2021/09/28 12:16:03;;;;;;;2.22;0.35;;;;;;;;;;4997274;28;20056;-65
2021/09/28 12:18:30;;;;;;;2.17;0.40;;;;;;;;;;4997334;28;20573;-66
2021/09/28 12:21:12;;;;;;;0.73;0.13;;;;;;;;;;4997843;28;20037;-65
2021/09/28 12:23:38;;;;;;;1.55;0.20;;;;;;;;;;5000084;28;20026;-65
2021/09/28 12:26:04;;;;;;;1.00;0.10;;;;;;;;;;4999561;28;20037;-66
2021/09/28 12:28:40;;;;;;;1.55;0.10;;;;;;;;;;5003056;28;20030;-65
2021/09/28 12:31:08;;;;;;;1.00;0.10;;;;;;;;;;4993191;28;20121;-66
2021/09/28 12:33:34;;;;;;;1.40;0.28;;;;;;;;;;5004659;28;20037;-65
2021/09/28 12:36:01;;;;;;;1.40;0.13;;;;;;;;;;4998172;28;20030;-65
2021/09/28 12:38:27;;;;;;;2.72;0.20;;;;;;;;;;4995169;28;20037;-65
2021/09/28 12:41:06;;;;;;;3.20;0.30;;;;;;;;;;4992986;28;20022;-65
2021/09/28 12:43:32;;;;;;;1.95;0.30;;;;;;;;;;5000623;28;20560;-65
2021/09/28 12:46:02;;;;;;;1.75;0.20;;;;;;;;;;4996507;28;20121;-65
2021/09/28 12:48:38;;;;;;;1.05;0.40;;;;;;;;;;4999418;28;20394;-64
2021/09/28 12:51:10;;;;;;;1.92;0.30;;;;;;;;;;4997337;28;20412;-65
2021/09/28 12:53:36;;;;;;;3.35;0.40;;;;;;;;;;4999700;28;20109;-65
2021/09/28 12:56:05;;;;;;;5.78;0.20;;;;;;;;;;4998701;28;20173;-64
2021/09/28 12:58:32;;;;;;;1.13;0.20;;;;;;;;;;4999659;28;20060;-64
2021/09/28 13:00:58;;;;;;;2.45;0.30;;;;;;;;;;4993726;28;20466;-63
2021/09/28 13:03:29;;;;;;;1.42;0.30;;;;;;;;;;4997918;28;20037;-63
2021/09/28 13:05:59;;;;;;;1.17;0.20;;;;;;;;;;5000956;28;20054;-64
2021/09/28 13:08:27;;;;;;;1.10;0.45;;;;;;;;;;5001440;28;20274;-64
2021/09/28 13:10:55;;;;;;;1.60;0.30;;;;;;;;;;4998774;28;20026;-64
2021/09/28 13:13:22;;;;;;;1.35;0.30;;;;;;;;;;4999684;28;20033;-64
2021/09/28 13:15:49;;;;;;;8.73;0.47;;;;;;;;;;4996775;28;20093;-64
2021/09/28 13:18:16;;;;;;;3.78;1.55;;;;;;;;;;5003191;28;20100;-63
2021/09/28 13:20:42;;;;;;;2.35;0.30;;;;;;;;;;5002496;28;20050;-63
2021/09/28 13:23:08;;;;;;;3.60;0.20;;;;;;;;;;4998108;28;20405;-64
2021/09/28 13:25:36;;;;;;;1.83;0.30;;;;;;;;;;4996939;28;20040;-63
2021/09/28 13:28:08;;;;;;;3.33;0.30;;;;;;;;;;4997192;28;20126;-63
2021/09/28 13:30:35;;;;;;;1.23;0.20;;;;;;;;;;5000683;28;20021;-63
2021/09/28 13:33:01;;;;;;;2.28;0.30;;;;;;;;;;4998540;28;20125;-64
2021/09/28 13:35:27;;;;;;;1.33;0.30;;;;;;;;;;4999873;28;20453;-63
2021/09/28 13:37:53;;;;;;;1.73;0.38;;;;;;;;;;4996148;28;20049;-62
2021/09/28 13:40:19;;;;;;;5.10;0.40;;;;;;;;;;5003687;28;20117;-63
2021/09/28 13:42:44;;;;;;;4.10;0.47;;;;;;;;;;5001854;28;20030;-63
2021/09/28 13:45:10;;;;;;;2.90;0.28;;;;;;;;;;5000932;28;20396;-62
2021/09/28 13:47:36;;;;;;;2.17;0.30;;;;;;;;;;4996094;28;20029;-63
2021/09/28 13:50:02;;;;;;;1.95;0.20;;;;;;;;;;4990394;28;20513;-63
2021/09/28 13:52:28;;;;;;;1.73;0.20;;;;;;;;;;5005447;28;20062;-63
2021/09/28 13:54:53;;;;;;;0.88;0.40;;;;;;;;;;4991440;28;20053;-63
2021/09/28 13:57:19;;;;;;;0.73;0.10;;;;;;;;;;4994149;28;20112;-63
2021/09/28 13:59:45;;;;;;;2.22;0.20;;;;;;;;;;4990707;28;20030;-63
2021/09/28 14:02:11;;;;;;;2.53;0.10;;;;;;;;;;5003451;28;20034;-63
2021/09/28 14:04:37;;;;;;;2.45;0.20;;;;;;;;;;4994814;28;20584;-63
2021/09/28 14:07:03;;;;;;;2.72;0.15;;;;;;;;;;4999650;28;20121;-63
2021/09/28 14:09:30;;;;;;;5.68;0.45;;;;;;;;;;5000735;28;20109;-63
2021/09/28 14:11:56;;;;;;;2.85;0.30;;;;;;;;;;4995172;28;20034;-64
2021/09/28 14:14:21;;;;;;;2.47;0.60;;;;;;;;;;4996676;28;20111;-63
2021/09/28 14:16:47;;;;;;;7.78;0.40;;;;;;;;;;4998137;28;20029;-64
2021/09/28 14:19:13;;;;;;;5.10;0.55;;;;;;;;;;4998053;28;20579;-64
2021/09/28 14:21:40;;;;;;;1.55;0.50;;;;;;;;;;4998781;28;20097;-64
2021/09/28 14:24:07;;;;;;;2.38;0.40;;;;;;;;;;4999583;28;20350;-64
2021/09/28 14:26:33;;;;;;;5.38;0.43;;;;;;;;;;5000952;28;20053;-64
2021/09/28 14:28:58;;;;;;;5.85;0.82;;;;;;;;;;4996013;28;20165;-64
2021/09/28 14:31:24;;;;;;;3.92;0.50;;;;;;;;;;4998141;28;20112;-63
2021/09/28 14:33:49;;;;;;;5.80;0.63;;;;;;;;;;5000900;28;20061;-64
2021/09/28 14:36:15;;;;;;;5.10;0.52;;;;;;;;;;5002541;28;20469;-63
2021/09/28 14:38:40;;;;;;;2.72;0.30;;;;;;;;;;4994697;28;20045;-64
2021/09/28 14:41:06;;;;;;;4.00;0.30;;;;;;;;;;4992761;28;20034;-64
2021/09/28 14:43:32;;;;;;;4.82;0.30;;;;;;;;;;4994158;28;20121;-63
2021/09/28 14:45:58;;;;;;;1.10;0.30;;;;;;;;;;4996991;28;20026;-64
2021/09/28 14:48:23;;;;;;;1.42;0.30;;;;;;;;;;4999977;28;20396;-64